Time;durP1;ratioP1;P1;durP2;ratioP2;P2;SDS_P1;SDS_P2;PMS_P1;PMS_P2;Temp;Humidity;BMP_temperature;BMP_pressure;BME280_temperature;BME280_humidity;BME280_pressure;Samples;Min_cycle;Max_cycle;Signal;HPM_P1;HPM_P2
2021/07/13 00:01:25;;;;;;;0.20;0.20;;;;;;;11.19;57.71;98020.09;5095196;28;20063;-66
2021/07/13 00:03:53;;;;;;;0.10;0.10;;;;;;;11.25;57.96;98020.16;5094750;28;20028;-64
2021/07/13 00:06:21;;;;;;;0.95;0.55;;;;;;;11.45;57.40;98030.53;5094327;28;20089;-66
2021/07/13 00:08:51;;;;;;;0.10;0.10;;;;;;;11.91;56.24;98028.19;5076106;28;20032;-64
2021/07/13 00:11:18;;;;;;;0.10;0.10;;;;;;;12.43;54.98;98023.91;5094265;28;20118;-64
2021/07/13 00:13:43;;;;;;;0.25;0.25;;;;;;;13.00;53.68;98033.28;5094392;28;20465;-64
2021/07/13 00:16:11;;;;;;;0.95;0.25;;;;;;;12.90;54.16;98024.97;5094284;28;20114;-64
2021/07/13 00:18:37;;;;;;;3.28;1.70;;;;;;;12.72;54.94;98032.59;5094277;28;20032;-63
2021/07/13 00:21:04;;;;;;;0.10;0.10;;;;;;;12.39;55.71;98039.31;5094141;28;20553;-65
2021/07/13 00:23:30;;;;;;;0.50;0.40;;;;;;;12.07;56.45;98040.16;5094067;28;20039;-65
2021/07/13 00:25:56;;;;;;;0.10;0.10;;;;;;;11.83;57.30;98053.44;5075879;28;20031;-64
2021/07/13 00:28:22;;;;;;;0.70;0.40;;;;;;;11.64;57.81;98047.50;5075976;28;20404;-65
2021/07/13 00:30:48;;;;;;;0.20;0.20;;;;;;;11.50;58.04;98036.09;5094165;28;20047;-64
2021/07/13 00:33:14;;;;;;;0.30;0.30;;;;;;;11.41;58.34;98052.22;5093727;28;20063;-65
2021/07/13 00:35:40;;;;;;;0.13;0.13;;;;;;;11.42;58.38;98048.38;5094024;28;20032;-64
2021/07/13 00:38:06;;;;;;;0.20;0.20;;;;;;;11.52;58.13;98055.91;5094288;28;20535;-64
2021/07/13 00:40:32;;;;;;;0.30;0.30;;;;;;;11.52;58.03;98053.97;5094065;28;20426;-64
2021/07/13 00:43:00;;;;;;;0.30;0.30;;;;;;;11.53;58.00;98063.88;5093966;28;20160;-64
2021/07/13 00:45:26;;;;;;;0.13;0.13;;;;;;;11.54;57.64;98057.31;5093773;28;20089;-62
2021/07/13 00:47:53;;;;;;;0.30;0.30;;;;;;;11.65;57.77;98043.66;5093947;28;20032;-67
2021/07/13 00:50:21;;;;;;;0.28;0.28;;;;;;;11.81;57.03;98048.19;5093997;28;20063;-67
2021/07/13 00:52:48;;;;;;;0.40;0.40;;;;;;;11.96;56.69;98053.03;5094252;28;20081;-67
2021/07/13 00:55:14;;;;;;;0.50;0.50;;;;;;;12.11;56.53;98051.50;5093831;28;20031;-66
2021/07/13 00:57:41;;;;;;;0.60;0.60;;;;;;;12.30;56.42;98038.16;5093472;28;20028;-68
2021/07/13 01:00:13;;;;;;;0.10;0.10;;;;;;;12.50;55.81;98049.28;5093616;28;20089;-67
2021/07/13 01:02:39;;;;;;;0.40;0.40;;;;;;;12.74;55.47;98054.38;5108276;28;20032;-68
2021/07/13 01:05:13;;;;;;;0.20;0.20;;;;;;;12.95;55.03;98053.34;5094164;28;20032;-66
2021/07/13 01:07:57;;;;;;;0.30;0.30;;;;;;;13.16;54.62;98058.94;5093660;28;20036;-66
2021/07/13 01:10:25;;;;;;;0.50;0.50;;;;;;;13.42;54.15;98061.81;5094000;28;20032;-65
2021/07/13 01:13:22;;;;;;;0.10;0.10;;;;;;;13.64;54.02;98042.28;5093380;28;20436;-67
2021/07/13 01:15:53;;;;;;;0.20;0.20;;;;;;;13.91;53.70;98047.53;5031641;28;20069;-67
2021/07/13 01:18:27;;;;;;;0.10;0.10;;;;;;;13.77;53.91;98044.50;5032953;28;20044;-66
2021/07/13 01:21:19;;;;;;;0.47;0.47;;;;;;;13.66;54.73;98046.44;5038098;28;20048;-67
2021/07/13 01:24:14;;;;;;;0.10;0.10;;;;;;;13.54;55.07;98045.03;5029575;28;20052;-68
2021/07/13 01:26:42;;;;;;;0.50;0.50;;;;;;;13.48;55.38;98044.19;5029411;28;20065;-65
2021/07/13 01:29:18;;;;;;;0.10;0.10;;;;;;;13.49;55.57;98048.63;5029061;28;20037;-66
2021/07/13 01:31:47;;;;;;;0.22;0.22;;;;;;;13.99;54.38;98046.19;5029690;28;20100;-65
2021/07/13 01:34:23;;;;;;;0.10;0.10;;;;;;;14.27;53.77;98055.00;5029289;28;20056;-65
2021/07/13 01:36:54;;;;;;;0.47;0.30;;;;;;;14.18;53.92;98055.56;5029546;28;20072;-67
2021/07/13 01:39:22;;;;;;;0.10;0.10;;;;;;;14.31;54.01;98062.44;5045922;28;20033;-69
2021/07/13 01:41:50;;;;;;;0.20;0.20;;;;;;;14.39;53.97;98063.00;5029790;28;20074;-68
2021/07/13 01:44:19;;;;;;;0.38;0.38;;;;;;;14.53;53.73;98056.63;5029562;28;20507;-70
2021/07/13 01:46:48;;;;;;;0.15;0.15;;;;;;;14.53;53.69;98056.63;5046300;28;20392;-71
2021/07/13 01:49:19;;;;;;;0.25;0.25;;;;;;;14.58;53.92;98053.00;5045968;28;20029;-73
2021/07/13 01:51:48;;;;;;;0.20;0.20;;;;;;;14.86;53.40;98059.88;5048092;28;20527;-72
2021/07/13 01:54:16;;;;;;;0.30;0.30;;;;;;;14.98;53.07;98062.31;5071719;28;20383;-69
2021/07/13 01:56:44;;;;;;;0.20;0.20;;;;;;;15.10;53.09;98070.28;5071475;28;20078;-68
2021/07/13 01:59:14;;;;;;;0.10;0.10;;;;;;;15.21;53.04;98066.38;5071281;28;20078;-67
2021/07/13 02:01:41;;;;;;;0.22;0.22;;;;;;;15.20;53.32;98064.72;5053435;28;20035;-69
2021/07/13 02:04:09;;;;;;;0.10;0.10;;;;;;;15.18;53.36;98072.47;5071229;28;20064;-68
2021/07/13 02:06:36;;;;;;;0.30;0.30;;;;;;;15.25;53.38;98072.16;5071421;28;20060;-71
2021/07/13 02:09:06;;;;;;;0.15;0.15;;;;;;;15.38;53.27;98073.47;5053278;28;20032;-67
2021/07/13 02:11:33;;;;;;;0.13;0.13;;;;;;;15.66;52.72;98068.34;5071225;28;20040;-67
2021/07/13 02:13:59;;;;;;;0.10;0.10;;;;;;;17.20;49.32;98069.75;5072184;28;20033;-67
2021/07/13 02:16:25;;;;;;;0.20;0.20;;;;;;;17.71;48.57;98067.38;5053895;28;20393;-66
2021/07/13 02:18:51;;;;;;;0.40;0.40;;;;;;;19.92;44.73;98072.47;5053231;28;20131;-67
2021/07/13 02:21:18;;;;;;;0.10;0.10;;;;;;;23.10;39.58;98077.41;5071592;28;20120;-67
2021/07/13 02:23:45;;;;;;;0.10;0.10;;;;;;;24.48;38.16;98070.34;5071133;28;20035;-67
2021/07/13 02:26:17;;;;;;;0.10;0.10;;;;;;;26.25;36.34;98084.63;5071194;28;20032;-66
2021/07/13 02:28:45;;;;;;;0.10;0.10;;;;;;;27.54;34.98;98079.66;5071283;28;20029;-67
2021/07/13 02:31:15;;;;;;;0.35;0.35;;;;;;;26.93;36.71;98080.94;5071168;28;20416;-66
2021/07/13 02:33:56;;;;;;;1.08;0.63;;;;;;;26.71;38.04;98073.91;5070799;28;20052;-66
2021/07/13 02:36:28;;;;;;;0.32;0.32;;;;;;;28.65;35.46;98086.97;5053088;28;20028;-66
2021/07/13 02:38:57;;;;;;;0.77;0.70;;;;;;;30.44;33.42;98078.19;5054695;28;20587;-70
2021/07/13 02:41:24;;;;;;;0.10;0.10;;;;;;;29.50;35.44;98093.75;5074696;28;20478;-68
2021/07/13 02:43:52;;;;;;;0.20;0.20;;;;;;;26.69;40.44;98098.78;5074537;28;20032;-67
2021/07/13 02:46:19;;;;;;;0.10;0.10;;;;;;;27.14;39.70;98091.13;5074766;28;20588;-67
2021/07/13 02:48:46;;;;;;;0.47;0.47;;;;;;;28.88;37.09;98097.50;5074762;28;20506;-68
2021/07/13 02:51:14;;;;;;;0.10;0.10;;;;;;;30.03;35.30;98099.44;5074695;28;20090;-68
2021/07/13 02:53:43;;;;;;;0.10;0.10;;;;;;;30.50;34.96;98100.09;5074548;28;20028;-68
2021/07/13 02:56:11;;;;;;;0.20;0.15;;;;;;;31.00;34.62;98105.53;5074800;28;20498;-66
2021/07/13 02:58:38;;;;;;;0.10;0.10;;;;;;;31.58;34.04;98104.09;5074393;28;20045;-66
2021/07/13 03:01:06;;;;;;;0.32;0.32;;;;;;;32.02;33.82;98104.38;5074417;28;20108;-66
2021/07/13 03:03:34;;;;;;;0.10;0.10;;;;;;;32.52;33.15;98098.19;5074427;28;20086;-66
2021/07/13 03:06:02;;;;;;;0.10;0.10;;;;;;;33.32;32.08;98108.59;5056427;28;20494;-67
2021/07/13 03:08:28;;;;;;;0.10;0.10;;;;;;;34.34;31.27;98108.09;5074308;28;20494;-67
2021/07/13 03:10:56;;;;;;;0.10;0.10;;;;;;;35.24;30.06;98101.16;5056327;28;20021;-67
2021/07/13 03:13:24;;;;;;;0.10;0.10;;;;;;;35.71;30.16;98103.66;5074289;28;20090;-67
2021/07/13 03:15:50;;;;;;;0.20;0.20;;;;;;;35.88;30.23;98110.47;5074254;28;20071;-67
2021/07/13 03:18:17;;;;;;;0.10;0.10;;;;;;;35.84;30.13;98107.66;5056013;28;20028;-66
2021/07/13 03:20:49;;;;;;;0.10;0.10;;;;;;;35.58;30.66;98112.72;5073719;28;20033;-66
2021/07/13 03:23:17;;;;;;;0.13;0.13;;;;;;;35.46;30.78;98106.75;5055958;28;20033;-68
2021/07/13 03:25:45;;;;;;;0.10;0.10;;;;;;;35.37;31.35;98107.22;5086118;28;20031;-67
2021/07/13 03:28:13;;;;;;;0.30;0.30;;;;;;;35.53;30.90;98101.78;5076394;28;20038;-69
2021/07/13 03:30:40;;;;;;;0.10;0.10;;;;;;;35.47;31.11;98106.31;5073631;28;20031;-68
2021/07/13 03:33:08;;;;;;;0.10;0.10;;;;;;;35.09;31.17;98111.84;5073978;28;20074;-67
2021/07/13 03:35:35;;;;;;;0.38;0.30;;;;;;;35.04;31.26;98109.44;5073948;28;20032;-68
2021/07/13 03:38:03;;;;;;;0.08;0.08;;;;;;;35.47;30.74;98112.03;5055807;28;20029;-68
2021/07/13 03:40:29;;;;;;;0.05;0.05;;;;;;;35.58;30.79;98106.22;5073673;28;20142;-69
2021/07/13 03:42:56;;;;;;;0.63;0.63;;;;;;;36.24;29.58;98116.63;5074016;28;20042;-68
2021/07/13 03:45:25;;;;;;;0.10;0.10;;;;;;;36.32;29.45;98120.22;5073691;28;20039;-67
2021/07/13 03:47:56;;;;;;;0.10;0.10;;;;;;;35.92;30.26;98112.03;5073587;28;20074;-67
2021/07/13 03:50:24;;;;;;;0.10;0.10;;;;;;;35.79;30.60;98128.09;5072819;28;20044;-67
2021/07/13 03:52:51;;;;;;;0.10;0.10;;;;;;;35.67;30.25;98126.53;5055299;28;20449;-67
2021/07/13 03:55:17;;;;;;;0.10;0.10;;;;;;;35.54;30.30;98131.13;5073604;28;20481;-66
2021/07/13 03:57:43;;;;;;;0.10;0.10;;;;;;;35.93;29.99;98127.16;5073639;28;20032;-67
2021/07/13 04:00:17;;;;;;;0.10;0.10;;;;;;;35.90;29.87;98111.66;5055270;28;20036;-68
2021/07/13 04:02:44;;;;;;;0.10;0.10;;;;;;;35.58;29.65;98135.56;5073271;28;20056;-69
2021/07/13 04:05:10;;;;;;;0.32;0.30;;;;;;;35.16;30.50;98113.84;5055126;28;20040;-66
2021/07/13 04:07:37;;;;;;;0.10;0.10;;;;;;;35.19;29.93;98115.84;5055377;28;20029;-66
2021/07/13 04:10:07;;;;;;;0.15;0.13;;;;;;;35.41;30.01;98119.38;5073457;28;20124;-66
2021/07/13 04:12:33;;;;;;;0.65;0.30;;;;;;;36.13;28.60;98124.50;5073763;28;20453;-69
2021/07/13 04:14:59;;;;;;;0.22;0.22;;;;;;;36.24;28.96;98116.63;5055380;28;20405;-66
2021/07/13 04:17:25;;;;;;;0.10;0.10;;;;;;;36.43;28.37;98132.34;5073284;28;20028;-68
2021/07/13 04:19:51;;;;;;;0.10;0.10;;;;;;;36.25;28.91;98114.56;5073408;28;20520;-67
2021/07/13 04:22:17;;;;;;;0.00;0.00;;;;;;;36.10;28.83;98123.31;5073198;28;20043;-68
2021/07/13 04:24:43;;;;;;;0.20;0.20;;;;;;;36.02;28.68;98127.47;5073054;28;20052;-68
2021/07/13 04:27:09;;;;;;;0.10;0.10;;;;;;;35.92;29.13;98116.97;5073092;28;20119;-66
2021/07/13 04:29:35;;;;;;;0.10;0.10;;;;;;;36.25;28.64;98123.13;5073018;28;20115;-69
2021/07/13 04:32:01;;;;;;;0.08;0.08;;;;;;;36.72;27.85;98128.31;5072889;28;20140;-68
2021/07/13 04:34:26;;;;;;;0.20;0.20;;;;;;;36.92;27.94;98134.22;5072883;28;20091;-68
2021/07/13 04:36:52;;;;;;;0.10;0.10;;;;;;;37.18;27.45;98121.19;5073038;28;20040;-69
2021/07/13 04:39:18;;;;;;;0.10;0.10;;;;;;;37.69;26.87;98124.91;5057790;28;20050;-68
2021/07/13 04:41:44;;;;;;;0.10;0.10;;;;;;;35.22;30.07;98124.41;5073251;28;20032;-68
2021/07/13 04:44:09;;;;;;;0.38;0.38;;;;;;;33.26;32.64;98124.41;5072609;28;20038;-69
2021/07/13 04:46:35;;;;;;;0.10;0.10;;;;;;;33.47;31.67;98115.91;5072344;28;20029;-69
2021/07/13 04:49:01;;;;;;;0.00;0.00;;;;;;;34.12;30.41;98135.81;5072048;28;20036;-68
2021/07/13 04:51:27;;;;;;;0.10;0.10;;;;;;;34.36;29.84;98127.63;5054264;28;20024;-67
2021/07/13 04:53:53;;;;;;;0.10;0.10;;;;;;;35.30;28.59;98122.34;5072115;28;20021;-67
2021/07/13 04:56:19;;;;;;;0.10;0.10;;;;;;;35.75;27.96;98115.88;5071928;28;20068;-67
2021/07/13 04:58:44;;;;;;;0.10;0.10;;;;;;;35.91;27.99;98123.91;5071982;28;20433;-67
2021/07/13 05:01:10;;;;;;;0.10;0.10;;;;;;;35.60;28.20;98118.84;5053859;28;20028;-69
2021/07/13 05:03:36;;;;;;;0.10;0.10;;;;;;;35.08;28.56;98113.88;5071037;28;20465;-68
2021/07/13 05:06:03;;;;;;;0.10;0.10;;;;;;;35.29;28.45;98117.03;5053816;28;20028;-68
2021/07/13 05:08:29;;;;;;;0.10;0.10;;;;;;;35.37;27.89;98130.84;5071800;28;20118;-67
2021/07/13 05:10:54;;;;;;;0.10;0.10;;;;;;;35.04;28.72;98118.81;5071805;28;20040;-67
2021/07/13 05:13:20;;;;;;;0.10;0.10;;;;;;;34.59;28.77;98126.34;5072161;28;20490;-68
2021/07/13 05:15:46;;;;;;;0.52;0.30;;;;;;;34.12;29.28;98121.56;5081062;28;20032;-65
2021/07/13 05:18:14;;;;;;;0.10;0.10;;;;;;;34.31;28.49;98105.28;5104487;28;20035;-68
2021/07/13 05:20:45;;;;;;;0.10;0.10;;;;;;;34.82;27.96;98117.28;5091532;28;20032;-67
2021/07/13 05:23:11;;;;;;;0.52;0.10;;;;;;;35.29;27.21;98108.47;5091317;28;20047;-66
2021/07/13 05:25:40;;;;;;;0.20;0.20;;;;;;;35.59;26.69;98108.66;5095727;28;20028;-67
2021/07/13 05:28:10;;;;;;;0.10;0.10;;;;;;;35.94;26.15;98115.31;5110710;28;20042;-69
2021/07/13 05:30:39;;;;;;;0.10;0.10;;;;;;;36.10;26.28;98111.88;5111968;28;20500;-67
2021/07/13 05:33:05;;;;;;;0.10;0.10;;;;;;;35.85;26.60;98112.13;5111726;28;20056;-66
2021/07/13 05:35:30;;;;;;;0.03;0.03;;;;;;;34.97;27.57;98112.31;5111746;28;20038;-67
2021/07/13 05:37:56;;;;;;;0.10;0.10;;;;;;;33.37;29.18;98127.28;5111923;28;20044;-67
2021/07/13 05:40:22;;;;;;;0.10;0.10;;;;;;;33.24;28.86;98118.34;5093559;28;20063;-68
2021/07/13 05:42:48;;;;;;;0.10;0.10;;;;;;;31.99;30.27;98111.66;5111901;28;20069;-67
2021/07/13 05:45:14;;;;;;;0.10;0.10;;;;;;;32.09;29.58;98121.47;5111816;28;20035;-67
2021/07/13 05:47:39;;;;;;;0.10;0.10;;;;;;;32.61;28.85;98121.34;5111672;28;20034;-67
2021/07/13 05:50:08;;;;;;;0.10;0.10;;;;;;;31.80;29.70;98101.41;5112112;28;20050;-67
2021/07/13 05:52:34;;;;;;;0.00;0.00;;;;;;;29.16;33.03;98116.97;5096084;28;20042;-68
2021/07/13 05:55:00;;;;;;;0.10;0.10;;;;;;;28.26;33.27;98103.09;5112617;28;20055;-67
2021/07/13 05:57:26;;;;;;;0.20;0.20;;;;;;;27.07;34.43;98111.47;5111762;28;20059;-66
2021/07/13 05:59:53;;;;;;;0.20;0.20;;;;;;;25.85;35.74;98112.38;5112283;28;20080;-67
2021/07/13 06:02:19;;;;;;;0.10;0.10;;;;;;;24.58;36.87;98114.00;5112519;28;20088;-67
2021/07/13 06:04:45;;;;;;;0.00;0.00;;;;;;;23.82;37.55;98102.69;5111618;28;20032;-68
2021/07/13 06:07:10;;;;;;;0.20;0.20;;;;;;;23.38;37.79;98111.38;5093208;28;20031;-67
2021/07/13 06:09:36;;;;;;;0.10;0.10;;;;;;;23.01;37.77;98113.81;5111591;28;20046;-68
2021/07/13 06:12:03;;;;;;;0.10;0.10;;;;;;;22.52;37.93;98108.47;5111605;28;20119;-69
2021/07/13 06:14:28;;;;;;;0.80;0.10;;;;;;;22.15;37.74;98115.53;5114058;28;20049;-67
2021/07/13 06:16:54;;;;;;;0.20;0.20;;;;;;;21.91;37.71;98111.25;5115610;28;20051;-68
2021/07/13 06:19:20;;;;;;;0.10;0.10;;;;;;;21.63;37.43;98119.91;5115475;28;20031;-68
2021/07/13 06:21:46;;;;;;;0.10;0.10;;;;;;;21.25;37.53;98117.63;5115428;28;20176;-67
2021/07/13 06:24:12;;;;;;;0.10;0.10;;;;;;;20.91;37.71;98113.53;5115633;28;20031;-67
2021/07/13 06:26:38;;;;;;;0.10;0.10;;;;;;;20.70;37.62;98121.63;5115426;28;20042;-66
2021/07/13 06:29:04;;;;;;;0.10;0.10;;;;;;;20.51;37.72;98120.94;5106887;28;20032;-68
2021/07/13 06:31:30;;;;;;;0.10;0.10;;;;;;;20.34;37.67;98108.53;5092681;28;20043;-67
2021/07/13 06:33:56;;;;;;;0.10;0.10;;;;;;;20.27;37.19;98109.00;5091817;28;20056;-66
2021/07/13 06:36:22;;;;;;;0.10;0.10;;;;;;;20.09;37.36;98137.84;5091704;28;20035;-66
2021/07/13 06:38:48;;;;;;;0.20;0.20;;;;;;;19.93;37.19;98118.72;5075781;28;20020;-67
2021/07/13 06:41:14;;;;;;;0.28;0.28;;;;;;;20.12;36.70;98107.38;5093790;28;20034;-67
2021/07/13 06:43:40;;;;;;;0.10;0.10;;;;;;;20.30;36.16;98115.88;5094271;28;20028;-68
2021/07/13 06:46:05;;;;;;;0.10;0.10;;;;;;;20.29;35.80;98115.06;5094369;28;20031;-68
2021/07/13 06:48:31;;;;;;;0.10;0.10;;;;;;;20.21;35.98;98148.44;5058423;28;20027;-67
2021/07/13 06:50:57;;;;;;;0.10;0.10;;;;;;;20.10;35.96;98133.94;5093604;28;20057;-70
2021/07/13 06:53:23;;;;;;;0.25;0.20;;;;;;;20.19;35.60;98114.50;5094196;28;20023;-67
2021/07/13 06:55:49;;;;;;;0.77;0.15;;;;;;;20.50;34.83;98116.53;5094023;28;20032;-67
2021/07/13 06:58:15;;;;;;;0.10;0.10;;;;;;;20.74;34.59;98122.63;5093917;28;20122;-67
2021/07/13 07:00:41;;;;;;;0.10;0.10;;;;;;;21.09;33.90;98128.38;5093757;28;20127;-66
2021/07/13 07:03:06;;;;;;;0.10;0.10;;;;;;;21.42;33.59;98113.25;5094013;28;20035;-67
2021/07/13 07:05:32;;;;;;;0.10;0.10;;;;;;;21.71;33.25;98107.09;5076562;28;20024;-67
2021/07/13 07:07:58;;;;;;;0.10;0.10;;;;;;;22.01;32.63;98105.34;5093268;28;20107;-66
2021/07/13 07:10:25;;;;;;;0.10;0.10;;;;;;;22.47;32.49;98113.44;5093860;28;20440;-67
2021/07/13 07:12:51;;;;;;;3.60;1.00;;;;;;;22.82;31.77;98102.16;5093703;28;20028;-65
2021/07/13 07:15:18;;;;;;;0.10;0.10;;;;;;;22.94;31.67;98110.69;5072865;28;20446;-67
2021/07/13 07:17:48;;;;;;;0.20;0.20;;;;;;;22.95;32.00;98103.91;5093602;28;20028;-67
2021/07/13 07:20:17;;;;;;;0.10;0.10;;;;;;;22.88;32.39;98112.03;5075664;28;20516;-67
2021/07/13 07:22:43;;;;;;;0.10;0.10;;;;;;;22.88;32.17;98123.25;5093403;28;20028;-67
2021/07/13 07:25:11;;;;;;;0.10;0.10;;;;;;;22.90;32.29;98115.31;5074322;28;20031;-67
2021/07/13 07:27:37;;;;;;;0.15;0.15;;;;;;;23.01;32.36;98108.22;5100413;28;20032;-68
2021/07/13 07:30:06;;;;;;;0.30;0.30;;;;;;;23.20;32.14;98107.00;5093646;28;20024;-68
2021/07/13 07:32:36;;;;;;;0.10;0.10;;;;;;;23.29;31.89;98116.19;5058500;28;20401;-67
2021/07/13 07:35:04;;;;;;;0.10;0.10;;;;;;;23.31;31.78;98113.88;5073083;28;20055;-67
2021/07/13 07:37:31;;;;;;;0.10;0.10;;;;;;;22.99;32.62;98120.88;5092970;28;20497;-68
2021/07/13 07:39:56;;;;;;;0.10;0.10;;;;;;;22.74;33.01;98121.44;5074867;28;20032;-69
2021/07/13 07:42:22;;;;;;;0.08;0.08;;;;;;;22.78;32.94;98127.19;5092954;28;20020;-67
2021/07/13 07:44:48;;;;;;;0.10;0.10;;;;;;;22.92;32.62;98115.78;5074309;28;20028;-68
2021/07/13 07:47:14;;;;;;;0.10;0.10;;;;;;;23.06;32.49;98108.00;5090896;28;20024;-67
2021/07/13 07:49:40;;;;;;;0.10;0.10;;;;;;;23.06;32.20;98113.59;5092774;28;20040;-68
2021/07/13 07:52:06;;;;;;;0.10;0.10;;;;;;;22.98;32.71;98111.69;5092864;28;20027;-67
2021/07/13 07:54:33;;;;;;;0.35;0.30;;;;;;;22.70;33.04;98103.69;5093037;28;20036;-67
2021/07/13 07:56:58;;;;;;;0.10;0.10;;;;;;;22.68;32.69;98125.56;5074633;28;20031;-68
2021/07/13 07:59:24;;;;;;;0.10;0.10;;;;;;;22.53;33.05;98117.69;5092742;28;20040;-67
2021/07/13 08:01:50;;;;;;;0.20;0.20;;;;;;;22.11;33.86;98108.97;5092846;28;20017;-67
2021/07/13 08:04:16;;;;;;;0.10;0.10;;;;;;;21.78;34.13;98101.03;5092728;28;20039;-68
2021/07/13 08:06:42;;;;;;;0.10;0.10;;;;;;;21.78;34.10;98104.66;5092512;28;20063;-67
2021/07/13 08:09:08;;;;;;;0.10;0.10;;;;;;;21.79;34.31;98109.09;5092330;28;20028;-67
2021/07/13 08:11:39;;;;;;;0.10;0.10;;;;;;;21.68;34.01;98110.56;5093651;28;20024;-70
2021/07/13 08:14:06;;;;;;;0.10;0.10;;;;;;;21.83;33.89;98104.50;5089774;28;20028;-68
2021/07/13 08:16:43;;;;;;;;;;;;;;;;;;;;;
2021/07/13 08:19:09;;;;;;;0.00;0.00;;;;;;;21.98;33.56;98108.81;5090283;28;20050;-68
2021/07/13 08:21:36;;;;;;;0.20;0.20;;;;;;;22.06;33.51;98101.56;5092257;28;20024;-70
2021/07/13 08:24:02;;;;;;;0.20;0.20;;;;;;;22.02;33.53;98118.16;5090097;28;20115;-69
2021/07/13 08:26:29;;;;;;;0.10;0.10;;;;;;;22.08;33.29;98102.03;5090396;28;20542;-69
2021/07/13 08:29:11;;;;;;;0.10;0.10;;;;;;;22.27;33.02;98092.50;5090848;28;20032;-71
2021/07/13 08:31:37;;;;;;;0.10;0.10;;;;;;;22.34;32.83;98107.66;5092616;28;20057;-67
2021/07/13 08:34:03;;;;;;;0.55;0.40;;;;;;;22.21;33.40;98097.44;5074640;28;20051;-67
2021/07/13 08:36:30;;;;;;;0.05;0.05;;;;;;;22.33;33.00;98096.81;5092842;28;20133;-72
2021/07/13 08:38:56;;;;;;;0.13;0.13;;;;;;;22.33;32.96;98103.22;5074537;28;20024;-69
2021/07/13 08:41:23;;;;;;;0.22;0.22;;;;;;;22.34;33.33;98101.25;5092401;28;20051;-67
2021/07/13 08:43:53;;;;;;;0.10;0.10;;;;;;;22.39;33.31;98099.13;5093297;28;20093;-67
2021/07/13 08:46:19;;;;;;;0.10;0.10;;;;;;;22.28;33.27;98120.16;5092084;28;20031;-67
2021/07/13 08:48:51;;;;;;;0.20;0.20;;;;;;;21.94;33.91;98116.19;5092505;28;20077;-68
2021/07/13 08:51:18;;;;;;;0.10;0.10;;;;;;;21.65;34.23;98109.22;5073918;28;20082;-70
2021/07/13 08:53:44;;;;;;;0.10;0.10;;;;;;;21.39;34.42;98117.50;5099838;28;20035;-68
2021/07/13 08:56:11;;;;;;;0.20;0.20;;;;;;;21.26;34.80;98115.66;5097609;28;20039;-69
2021/07/13 08:58:36;;;;;;;0.30;0.30;;;;;;;21.34;34.65;98112.88;5073790;28;20035;-69
2021/07/13 09:01:02;;;;;;;0.10;0.10;;;;;;;21.42;34.10;98116.03;5077003;28;20024;-68
2021/07/13 09:03:32;;;;;;;0.15;0.15;;;;;;;21.44;34.15;98134.13;5092166;28;20020;-70
2021/07/13 09:06:02;;;;;;;0.10;0.10;;;;;;;20.98;35.01;98122.28;5073443;28;20059;-68
2021/07/13 09:08:33;;;;;;;0.20;0.20;;;;;;;20.72;35.23;98132.47;5091472;28;20040;-69
2021/07/13 09:11:04;;;;;;;0.10;0.10;;;;;;;20.63;35.12;98116.44;5091516;28;20028;-72
2021/07/13 09:13:36;;;;;;;0.10;0.10;;;;;;;20.69;35.01;98119.16;5073653;28;20032;-68
2021/07/13 09:16:10;;;;;;;0.10;0.10;;;;;;;20.66;34.79;98126.19;5091436;28;20551;-68
2021/07/13 09:18:56;;;;;;;0.65;0.52;;;;;;;20.47;34.97;98116.00;5089481;28;20067;-68
2021/07/13 09:21:37;;;;;;;0.10;0.10;;;;;;;20.33;35.37;98111.66;5069422;28;20032;-68
2021/07/13 09:24:17;;;;;;;0.10;0.10;;;;;;;20.21;35.35;98112.22;5073907;28;20028;-67
2021/07/13 09:26:51;;;;;;;0.20;0.20;;;;;;;20.23;35.39;98105.19;5090791;28;20034;-65
2021/07/13 09:29:40;;;;;;;0.10;0.10;;;;;;;20.42;35.03;98104.16;5090575;28;20032;-67
2021/07/13 09:32:37;;;;;;;0.10;0.10;;;;;;;20.72;34.58;98116.53;5091647;28;20043;-67
2021/07/13 09:35:10;;;;;;;0.10;0.10;;;;;;;21.31;33.70;98104.34;5089747;28;20082;-67
2021/07/13 09:37:38;;;;;;;0.10;0.10;;;;;;;21.81;32.79;98109.59;5073489;28;20046;-67
2021/07/13 09:40:18;;;;;;;0.10;0.10;;;;;;;21.89;32.79;98113.53;5091783;28;20035;-65
2021/07/13 09:42:49;;;;;;;0.10;0.10;;;;;;;21.58;33.48;98111.66;5089608;28;20028;-67
2021/07/13 09:45:21;;;;;;;0.10;0.10;;;;;;;21.20;34.11;98115.00;5088533;28;20062;-68
2021/07/13 09:47:49;;;;;;;0.00;0.00;;;;;;;20.73;35.05;98117.34;5091231;28;20028;-67
2021/07/13 09:50:35;;;;;;;0.20;0.20;;;;;;;20.13;35.82;98119.38;5090737;28;20038;-70
2021/07/13 09:53:03;;;;;;;0.10;0.10;;;;;;;19.58;36.77;98120.28;5089199;28;20024;-68
2021/07/13 09:55:30;;;;;;;0.10;0.10;;;;;;;19.23;37.22;98117.13;5090901;28;20039;-69
2021/07/13 09:58:23;;;;;;;0.10;0.10;;;;;;;19.11;37.10;98108.44;5090679;28;20058;-68
2021/07/13 10:00:58;;;;;;;0.10;0.10;;;;;;;19.03;36.96;98113.56;5090592;28;20069;-67
2021/07/13 10:03:24;;;;;;;0.10;0.10;;;;;;;19.10;37.02;98115.16;5091830;28;20036;-70
2021/07/13 10:05:55;;;;;;;0.10;0.10;;;;;;;19.14;36.54;98114.22;5090894;28;20028;-72
2021/07/13 10:08:25;;;;;;;0.10;0.10;;;;;;;19.31;36.50;98113.59;5071980;28;20030;-70
2021/07/13 10:10:51;;;;;;;0.10;0.10;;;;;;;19.50;36.24;98138.53;5091819;28;20024;-66
2021/07/13 10:13:18;;;;;;;0.10;0.10;;;;;;;19.75;35.59;98122.44;5091178;28;20036;-67
2021/07/13 10:15:48;;;;;;;0.10;0.10;;;;;;;20.17;34.96;98106.47;5075115;28;20053;-69
2021/07/13 10:18:13;;;;;;;0.10;0.10;;;;;;;20.64;34.29;98125.63;5091590;28;20042;-69
2021/07/13 10:20:42;;;;;;;0.10;0.10;;;;;;;20.78;34.23;98125.59;5091256;28;20024;-70
2021/07/13 10:23:10;;;;;;;0.10;0.10;;;;;;;20.73;34.51;98128.50;5091760;28;20552;-68
2021/07/13 10:25:44;;;;;;;0.10;0.10;;;;;;;20.39;35.06;98141.03;5090825;28;20066;-70
2021/07/13 10:28:11;;;;;;;0.20;0.20;;;;;;;20.08;35.61;98138.97;5090782;28;20554;-68
2021/07/13 10:30:42;;;;;;;0.10;0.10;;;;;;;19.92;35.75;98130.97;5088382;28;20107;-67
2021/07/13 10:33:28;;;;;;;0.10;0.10;;;;;;;19.78;36.08;98130.19;5090590;28;20127;-67
2021/07/13 10:35:56;;;;;;;0.10;0.10;;;;;;;19.68;36.14;98135.94;5084042;28;20082;-67
2021/07/13 10:38:29;;;;;;;0.10;0.10;;;;;;;19.61;36.17;98139.97;5056795;28;20040;-67
2021/07/13 10:40:57;;;;;;;0.17;0.17;;;;;;;19.64;36.26;98135.75;5089360;28;20047;-68
2021/07/13 10:43:27;;;;;;;0.30;0.30;;;;;;;19.71;35.99;98129.75;5074236;28;20047;-71
2021/07/13 10:46:11;;;;;;;0.10;0.10;;;;;;;19.78;35.97;98131.00;5072211;28;20054;-68
2021/07/13 10:48:38;;;;;;;0.17;0.17;;;;;;;19.86;35.91;98135.03;5089578;28;20036;-68
2021/07/13 10:51:07;;;;;;;0.40;0.25;;;;;;;19.69;36.14;98130.06;5091088;28;20028;-68
2021/07/13 10:53:45;;;;;;;0.10;0.10;;;;;;;19.43;36.67;98127.84;5088311;28;20028;-68
2021/07/13 10:56:30;;;;;;;0.32;0.32;;;;;;;19.22;36.54;98138.53;5088208;28;20390;-68
2021/07/13 10:58:55;;;;;;;;;;;;;;;19.05;36.94;98136.38;5089546;28;20050;-66
2021/07/13 11:01:28;;;;;;;0.10;0.10;;;;;;;18.99;36.92;98129.25;5092298;28;19920;-67
2021/07/13 11:03:59;;;;;;;0.10;0.10;;;;;;;19.02;36.89;98122.22;5092501;28;20134;-66
2021/07/13 11:06:48;;;;;;;0.10;0.10;;;;;;;19.03;36.84;98112.75;5095959;28;20034;-61
2021/07/13 11:09:22;;;;;;;0.10;0.10;;;;;;;19.08;36.69;98110.72;5091750;28;20081;-64
2021/07/13 11:11:48;;;;;;;0.20;0.20;;;;;;;19.25;36.30;98146.25;5094366;28;20513;-68
2021/07/13 11:14:15;;;;;;;0.20;0.20;;;;;;;19.36;36.16;98126.56;5093922;28;20039;-68
2021/07/13 11:16:43;;;;;;;0.10;0.10;;;;;;;19.46;36.07;98115.22;5075763;28;20047;-64
2021/07/13 11:19:17;;;;;;;0.10;0.10;;;;;;;19.35;36.21;98147.22;5093211;28;20051;-63
2021/07/13 11:21:48;;;;;;;;;;;;;;;19.06;36.70;98145.53;5094913;28;20491;-66
2021/07/13 11:24:17;;;;;;;0.10;0.10;;;;;;;18.75;37.13;98137.72;5072984;28;19915;-68
2021/07/13 11:26:47;;;;;;;0.10;0.10;;;;;;;18.64;37.29;98125.97;5093911;28;20016;-67
2021/07/13 11:29:28;;;;;;;0.10;0.10;;;;;;;18.77;37.06;98134.63;5093843;28;20020;-67
2021/07/13 11:32:09;;;;;;;0.10;0.10;;;;;;;18.92;36.85;98128.84;5058914;28;20040;-66
2021/07/13 11:34:40;;;;;;;0.00;0.00;;;;;;;19.19;36.42;98125.25;5091654;28;20160;-72
2021/07/13 11:37:08;;;;;;;0.35;0.20;;;;;;;19.42;36.09;98136.50;5093312;28;20028;-69
2021/07/13 11:39:39;;;;;;;0.10;0.10;;;;;;;19.46;36.07;98131.13;5074296;28;20036;-67
2021/07/13 11:42:09;;;;;;;0.10;0.10;;;;;;;19.57;36.05;98144.53;5093387;28;20027;-67